MDT,Max TemperatureF,Mean TemperatureF,Min TemperatureF,Max Dew PointF,MeanDew PointF,Min DewpointF,Max Humidity, Mean Humidity, Min Humidity, Max Sea Level PressureIn, Mean Sea Level PressureIn, Min Sea Level PressureIn, Max VisibilityMiles, Mean VisibilityMiles, Min VisibilityMiles, Max Wind SpeedMPH, Mean Wind SpeedMPH, Max Gust SpeedMPH,PrecipitationIn, CloudCover, Events, WindDirDegrees
2013-10-1,71,58,46,45,40,36,76,52,33,30.16,30.04,29.94,10,10,10,14,6,22,0.00,0,,119
2013-10-2,77,60,42,46,42,37,87,59,26,30.02,29.97,29.92,10,10,5,18,6,23,0.00,0,,57
2013-10-3,64,52,41,46,41,36,93,68,48,29.98,29.86,29.78,10,9,1,20,5,21,0.01,2,Thunderstorm,42
2013-10-4,46,40,33,43,29,21,93,69,49,30.22,30.06,29.84,10,9,3,28,19,37,0.14,4,,347
2013-10-5,60,45,30,28,20,14,80,39,17,30.22,30.17,30.13,10,10,10,24,10,31,0.00,1,,303
2013-10-6,66,49,32,39,31,18,80,50,30,30.29,30.24,30.19,10,10,9,13,6,,0.00,0,,180
2013-10-7,73,57,41,45,38,34,81,55,29,30.22,30.10,29.95,10,10,4,8,4,,0.00,0,,1
2013-10-8,78,61,44,45,38,30,81,52,19,29.94,29.85,29.76,10,10,8,18,5,23,0.00,0,,52
2013-10-9,64,54,44,43,39,34,76,58,42,30.01,29.95,29.84,10,10,4,15,8,,0.00,2,,36
2013-10-10,55,48,42,46,41,34,87,75,50,29.99,29.76,29.54,10,10,7,16,5,29,0.04,3,Thunderstorm,37
2013-10-11,62,52,41,37,33,28,76,46,34,30.10,29.81,29.51,10,10,10,23,11,39,0.04,1,,299
2013-10-12,55,47,39,39,37,36,87,71,54,30.23,30.16,30.11,10,10,10,8,3,,0.00,4,,2
2013-10-13,60,46,33,43,38,30,93,73,48,30.18,30.08,29.90,10,10,10,9,6,,0.00,1,,360
2013-10-14,51,48,44,43,38,30,93,72,50,30.03,29.90,29.83,10,10,10,28,9,34,0.00,3,Thunderstorm,7
2013-10-15,42,37,35,23,21,19,56,51,46,30.32,30.28,30.25,10,10,10,18,16,25,0.00,7,,354
2013-10-16,53,40,26,30,28,21,93,61,33,30.15,30.08,30.01,10,10,9,8,3,,0.00,0,,198
2013-10-17,46,39,32,32,29,23,81,66,50,30.16,30.10,30.06,10,10,5,12,5,,0.00,3,,95
2013-10-18,46,37,28,32,28,25,100,76,43,30.22,30.15,30.11,10,8,1,20,8,28,0.17,3,,144
2013-10-19,62,44,26,36,30,23,87,62,27,30.11,30.01,29.93,10,10,8,9,5,,0.00,0,,98
2013-10-20,44,38,33,36,33,28,93,78,61,30.15,30.04,29.92,10,9,0,17,6,18,0.08,4,,352
2013-10-21,59,44,28,36,31,27,100,64,31,30.18,30.15,30.10,10,9,0,22,5,29,0.00,2,,230
2013-10-22,62,50,39,37,34,28,76,56,34,30.25,30.17,30.14,10,10,10,13,6,,0.00,1,,192
2013-10-23,64,50,37,37,34,28,87,59,34,30.27,30.18,30.13,10,10,10,12,4,,0.00,0,,167
2013-10-24,57,45,33,39,34,28,87,74,48,30.32,30.27,30.23,10,10,3,10,5,,0.00,1,,20
2013-10-25,68,50,33,39,34,28,100,61,28,30.27,30.19,30.11,10,9,1,9,3,,0.00,0,,246
2013-10-26,60,48,35,37,33,28,76,56,36,30.38,30.30,30.17,10,10,10,13,6,,0.00,0,,176
2013-10-27,69,51,33,39,31,27,87,50,20,30.16,29.98,29.86,10,10,10,17,4,20,0.00,0,,221
2013-10-28,53,42,32,34,30,28,93,79,38,30.10,30.03,29.91,10,6,2,15,8,17,0.01,6,,74
2013-10-29,39,36,32,32,30,28,93,84,70,30.04,29.99,29.92,10,8,3,10,6,,0.00,7,,135
2013-10-30,46,39,32,37,33,30,100,86,62,29.94,29.87,29.83,10,6,0,14,5,,0.16,5,Thunderstorm,170
2013-10-31,55,40,26,34,27,23,100,66,31,29.90,29.84,29.81,10,9,0,16,4,23,0.00,1,,145